sensor_id;sensor_type;location;lat;lon;timestamp;temperature;humidity
16523;DHT22;19889;52.546;13.348;2022-10-16T00:02:23;17.20;99.90
16523;DHT22;19889;52.546;13.348;2022-10-16T00:04:51;17.20;99.90
16523;DHT22;19889;52.546;13.348;2022-10-16T00:07:20;17.20;99.90
16523;DHT22;19889;52.546;13.348;2022-10-16T00:09:47;17.20;99.90
16523;DHT22;19889;52.546;13.348;2022-10-16T00:12:13;17.20;99.90
16523;DHT22;19889;52.546;13.348;2022-10-16T00:14:40;17.20;99.90
16523;DHT22;19889;52.546;13.348;2022-10-16T00:17:09;17.20;99.90
16523;DHT22;19889;52.546;13.348;2022-10-16T00:19:36;17.20;99.90
16523;DHT22;19889;52.546;13.348;2022-10-16T00:22:04;17.20;99.90
16523;DHT22;19889;52.546;13.348;2022-10-16T00:24:30;17.20;99.90
16523;DHT22;19889;52.546;13.348;2022-10-16T00:26:57;17.20;99.90
16523;DHT22;19889;52.546;13.348;2022-10-16T00:29:24;17.20;99.90
16523;DHT22;19889;52.546;13.348;2022-10-16T00:31:51;17.20;99.90
16523;DHT22;19889;52.546;13.348;2022-10-16T00:34:17;17.20;99.90
16523;DHT22;19889;52.546;13.348;2022-10-16T00:36:44;17.10;99.90
16523;DHT22;19889;52.546;13.348;2022-10-16T00:39:12;17.30;99.90
16523;DHT22;19889;52.546;13.348;2022-10-16T00:41:39;17.20;99.90
16523;DHT22;19889;52.546;13.348;2022-10-16T00:47:08;17.20;99.90
16523;DHT22;19889;52.546;13.348;2022-10-16T00:49:35;17.30;99.90
16523;DHT22;19889;52.546;13.348;2022-10-16T00:52:03;17.20;99.90
16523;DHT22;19889;52.546;13.348;2022-10-16T00:54:32;17.20;99.90
16523;DHT22;19889;52.546;13.348;2022-10-16T00:57:01;17.30;99.90
16523;DHT22;19889;52.546;13.348;2022-10-16T00:59:30;17.20;99.90
16523;DHT22;19889;52.546;13.348;2022-10-16T01:01:58;17.20;99.90
16523;DHT22;19889;52.546;13.348;2022-10-16T01:04:26;17.30;99.90
16523;DHT22;19889;52.546;13.348;2022-10-16T01:07:01;17.30;99.90
16523;DHT22;19889;52.546;13.348;2022-10-16T01:09:39;17.20;99.90
16523;DHT22;19889;52.546;13.348;2022-10-16T01:12:12;17.30;99.90
16523;DHT22;19889;52.546;13.348;2022-10-16T01:14:47;17.30;99.90
16523;DHT22;19889;52.546;13.348;2022-10-16T01:17:18;17.30;99.90
16523;DHT22;19889;52.546;13.348;2022-10-16T01:20:03;17.30;99.90
16523;DHT22;19889;52.546;13.348;2022-10-16T01:22:38;17.30;99.90
16523;DHT22;19889;52.546;13.348;2022-10-16T01:25:11;17.30;99.90
16523;DHT22;19889;52.546;13.348;2022-10-16T01:27:45;17.30;99.90
16523;DHT22;19889;52.546;13.348;2022-10-16T01:30:17;17.30;99.90
16523;DHT22;19889;52.546;13.348;2022-10-16T01:32:49;17.20;99.90
16523;DHT22;19889;52.546;13.348;2022-10-16T01:35:18;17.30;99.90
16523;DHT22;19889;52.546;13.348;2022-10-16T01:37:51;17.30;99.90
16523;DHT22;19889;52.546;13.348;2022-10-16T01:40:20;17.30;99.90
16523;DHT22;19889;52.546;13.348;2022-10-16T01:42:55;17.30;99.90
16523;DHT22;19889;52.546;13.348;2022-10-16T01:45:23;17.30;99.90
16523;DHT22;19889;52.546;13.348;2022-10-16T01:47:51;17.30;99.90
16523;DHT22;19889;52.546;13.348;2022-10-16T01:50:19;17.30;99.90
16523;DHT22;19889;52.546;13.348;2022-10-16T01:52:50;17.30;99.90
16523;DHT22;19889;52.546;13.348;2022-10-16T01:55:25;17.20;99.90
16523;DHT22;19889;52.546;13.348;2022-10-16T01:57:57;17.30;99.90
16523;DHT22;19889;52.546;13.348;2022-10-16T02:00:26;17.20;99.90
16523;DHT22;19889;52.546;13.348;2022-10-16T02:02:53;17.20;99.90
16523;DHT22;19889;52.546;13.348;2022-10-16T02:05:25;17.30;99.90
16523;DHT22;19889;52.546;13.348;2022-10-16T02:07:53;17.30;99.90
16523;DHT22;19889;52.546;13.348;2022-10-16T02:10:20;17.20;99.90
16523;DHT22;19889;52.546;13.348;2022-10-16T02:12:50;17.30;99.90
16523;DHT22;19889;52.546;13.348;2022-10-16T02:15:22;17.30;99.90
16523;DHT22;19889;52.546;13.348;2022-10-16T02:17:48;17.20;99.90
16523;DHT22;19889;52.546;13.348;2022-10-16T02:20:15;17.30;99.90
16523;DHT22;19889;52.546;13.348;2022-10-16T02:22:44;17.20;99.90
16523;DHT22;19889;52.546;13.348;2022-10-16T02:25:17;19.10;99.90
16523;DHT22;19889;52.546;13.348;2022-10-16T02:27:52;17.30;99.90
16523;DHT22;19889;52.546;13.348;2022-10-16T02:30:25;17.20;99.90
16523;DHT22;19889;52.546;13.348;2022-10-16T02:32:54;17.20;99.90
16523;DHT22;19889;52.546;13.348;2022-10-16T02:35:23;17.20;99.90
16523;DHT22;19889;52.546;13.348;2022-10-16T02:37:51;17.20;99.90
16523;DHT22;19889;52.546;13.348;2022-10-16T02:40:18;17.20;99.90
16523;DHT22;19889;52.546;13.348;2022-10-16T02:42:50;17.20;99.90
16523;DHT22;19889;52.546;13.348;2022-10-16T02:45:17;17.20;99.90
16523;DHT22;19889;52.546;13.348;2022-10-16T02:47:46;17.20;99.90
16523;DHT22;19889;52.546;13.348;2022-10-16T02:50:13;17.20;99.90
16523;DHT22;19889;52.546;13.348;2022-10-16T02:52:39;17.20;99.90
16523;DHT22;19889;52.546;13.348;2022-10-16T02:55:07;17.20;99.90
16523;DHT22;19889;52.546;13.348;2022-10-16T02:57:34;17.20;99.90
16523;DHT22;19889;52.546;13.348;2022-10-16T03:00:03;17.20;99.90
16523;DHT22;19889;52.546;13.348;2022-10-16T03:02:29;17.20;99.90
16523;DHT22;19889;52.546;13.348;2022-10-16T03:04:57;17.20;99.90
16523;DHT22;19889;52.546;13.348;2022-10-16T03:07:24;17.20;99.90
16523;DHT22;19889;52.546;13.348;2022-10-16T03:09:51;17.20;99.90
16523;DHT22;19889;52.546;13.348;2022-10-16T03:12:18;17.20;99.90
16523;DHT22;19889;52.546;13.348;2022-10-16T03:14:45;17.10;99.90
16523;DHT22;19889;52.546;13.348;2022-10-16T03:17:11;17.10;99.90
16523;DHT22;19889;52.546;13.348;2022-10-16T03:19:39;17.20;99.90
16523;DHT22;19889;52.546;13.348;2022-10-16T03:22:07;17.20;99.90
16523;DHT22;19889;52.546;13.348;2022-10-16T03:24:34;17.10;99.90
16523;DHT22;19889;52.546;13.348;2022-10-16T03:27:00;17.10;99.90
16523;DHT22;19889;52.546;13.348;2022-10-16T03:29:27;17.10;99.90
16523;DHT22;19889;52.546;13.348;2022-10-16T03:31:55;17.10;99.90
16523;DHT22;19889;52.546;13.348;2022-10-16T03:34:21;17.10;99.90
16523;DHT22;19889;52.546;13.348;2022-10-16T03:36:48;17.10;99.90
16523;DHT22;19889;52.546;13.348;2022-10-16T03:39:16;17.10;99.90
16523;DHT22;19889;52.546;13.348;2022-10-16T03:41:43;17.10;99.90
16523;DHT22;19889;52.546;13.348;2022-10-16T03:44:11;17.00;99.90
16523;DHT22;19889;52.546;13.348;2022-10-16T03:46:38;17.00;99.90
16523;DHT22;19889;52.546;13.348;2022-10-16T03:49:05;17.00;99.90
16523;DHT22;19889;52.546;13.348;2022-10-16T03:51:32;17.00;99.90
16523;DHT22;19889;52.546;13.348;2022-10-16T03:53:59;17.10;99.90
16523;DHT22;19889;52.546;13.348;2022-10-16T03:56:27;17.00;99.90
16523;DHT22;19889;52.546;13.348;2022-10-16T03:58:54;17.10;99.90
16523;DHT22;19889;52.546;13.348;2022-10-16T04:01:21;17.10;99.90
16523;DHT22;19889;52.546;13.348;2022-10-16T04:03:47;17.10;99.90
16523;DHT22;19889;52.546;13.348;2022-10-16T04:06:14;17.10;99.90
16523;DHT22;19889;52.546;13.348;2022-10-16T04:08:42;17.10;99.90
16523;DHT22;19889;52.546;13.348;2022-10-16T04:11:09;17.10;99.90
16523;DHT22;19889;52.546;13.348;2022-10-16T04:13:37;17.10;99.90
16523;DHT22;19889;52.546;13.348;2022-10-16T04:16:04;17.10;99.90
16523;DHT22;19889;52.546;13.348;2022-10-16T04:18:31;17.10;99.90
16523;DHT22;19889;52.546;13.348;2022-10-16T04:21:02;17.10;99.90
16523;DHT22;19889;52.546;13.348;2022-10-16T04:23:29;17.10;99.90
16523;DHT22;19889;52.546;13.348;2022-10-16T04:25:56;17.10;99.90
16523;DHT22;19889;52.546;13.348;2022-10-16T04:28:22;17.00;99.90
16523;DHT22;19889;52.546;13.348;2022-10-16T04:30:51;17.10;99.90
16523;DHT22;19889;52.546;13.348;2022-10-16T04:33:17;17.00;99.90
16523;DHT22;19889;52.546;13.348;2022-10-16T04:35:44;17.00;99.90
16523;DHT22;19889;52.546;13.348;2022-10-16T04:38:11;17.00;99.90
16523;DHT22;19889;52.546;13.348;2022-10-16T04:40:38;17.00;99.90
16523;DHT22;19889;52.546;13.348;2022-10-16T04:43:05;17.10;99.90
16523;DHT22;19889;52.546;13.348;2022-10-16T04:45:32;17.00;99.90
16523;DHT22;19889;52.546;13.348;2022-10-16T04:48:00;17.00;99.90
16523;DHT22;19889;52.546;13.348;2022-10-16T04:50:27;17.00;99.90
16523;DHT22;19889;52.546;13.348;2022-10-16T04:53:04;17.00;99.90
16523;DHT22;19889;52.546;13.348;2022-10-16T04:55:31;17.00;99.90
16523;DHT22;19889;52.546;13.348;2022-10-16T04:57:57;17.00;99.90
16523;DHT22;19889;52.546;13.348;2022-10-16T05:00:24;17.00;99.90
16523;DHT22;19889;52.546;13.348;2022-10-16T05:02:51;16.90;99.90
16523;DHT22;19889;52.546;13.348;2022-10-16T05:05:19;17.00;99.90
16523;DHT22;19889;52.546;13.348;2022-10-16T05:07:46;17.00;99.90
16523;DHT22;19889;52.546;13.348;2022-10-16T05:10:13;17.00;99.90
16523;DHT22;19889;52.546;13.348;2022-10-16T05:12:40;16.90;99.90
16523;DHT22;19889;52.546;13.348;2022-10-16T05:15:08;16.90;99.90
16523;DHT22;19889;52.546;13.348;2022-10-16T05:17:34;16.90;99.90
16523;DHT22;19889;52.546;13.348;2022-10-16T05:20:01;16.90;99.90
16523;DHT22;19889;52.546;13.348;2022-10-16T05:22:30;16.90;99.90
16523;DHT22;19889;52.546;13.348;2022-10-16T05:24:57;16.90;99.90
16523;DHT22;19889;52.546;13.348;2022-10-16T05:27:23;16.90;99.90
16523;DHT22;19889;52.546;13.348;2022-10-16T05:29:50;16.90;99.90
16523;DHT22;19889;52.546;13.348;2022-10-16T05:32:18;16.90;99.90
16523;DHT22;19889;52.546;13.348;2022-10-16T05:34:45;16.90;99.90
16523;DHT22;19889;52.546;13.348;2022-10-16T05:37:12;16.90;99.90
16523;DHT22;19889;52.546;13.348;2022-10-16T05:39:40;16.90;99.90
16523;DHT22;19889;52.546;13.348;2022-10-16T05:42:07;16.90;99.90
16523;DHT22;19889;52.546;13.348;2022-10-16T05:44:34;16.90;99.90
16523;DHT22;19889;52.546;13.348;2022-10-16T05:47:01;16.80;99.90
16523;DHT22;19889;52.546;13.348;2022-10-16T05:49:28;16.90;99.90
16523;DHT22;19889;52.546;13.348;2022-10-16T05:51:54;16.80;99.90
16523;DHT22;19889;52.546;13.348;2022-10-16T05:54:21;16.90;99.90
16523;DHT22;19889;52.546;13.348;2022-10-16T05:56:49;16.90;99.90
16523;DHT22;19889;52.546;13.348;2022-10-16T05:59:16;16.90;99.90
16523;DHT22;19889;52.546;13.348;2022-10-16T06:01:42;16.90;99.90
16523;DHT22;19889;52.546;13.348;2022-10-16T06:04:09;16.90;99.90
16523;DHT22;19889;52.546;13.348;2022-10-16T06:06:36;16.90;99.90
16523;DHT22;19889;52.546;13.348;2022-10-16T06:09:03;16.90;99.90
16523;DHT22;19889;52.546;13.348;2022-10-16T06:11:32;16.90;99.90
16523;DHT22;19889;52.546;13.348;2022-10-16T06:14:01;16.90;99.90
16523;DHT22;19889;52.546;13.348;2022-10-16T06:16:32;16.90;99.90
16523;DHT22;19889;52.546;13.348;2022-10-16T06:18:59;16.90;99.90
16523;DHT22;19889;52.546;13.348;2022-10-16T06:21:28;16.90;99.90
16523;DHT22;19889;52.546;13.348;2022-10-16T06:23:56;16.90;99.90
16523;DHT22;19889;52.546;13.348;2022-10-16T06:26:25;16.90;99.90
16523;DHT22;19889;52.546;13.348;2022-10-16T06:28:53;16.90;99.90
16523;DHT22;19889;52.546;13.348;2022-10-16T06:31:22;16.90;99.90
16523;DHT22;19889;52.546;13.348;2022-10-16T06:33:53;16.90;99.90
16523;DHT22;19889;52.546;13.348;2022-10-16T06:36:21;16.90;99.90
16523;DHT22;19889;52.546;13.348;2022-10-16T06:38:48;16.90;99.90
16523;DHT22;19889;52.546;13.348;2022-10-16T06:41:16;16.90;99.90
16523;DHT22;19889;52.546;13.348;2022-10-16T06:43:43;16.90;99.90
16523;DHT22;19889;52.546;13.348;2022-10-16T06:46:12;16.90;99.90
16523;DHT22;19889;52.546;13.348;2022-10-16T06:48:41;16.90;99.90
16523;DHT22;19889;52.546;13.348;2022-10-16T06:51:10;16.90;99.90
16523;DHT22;19889;52.546;13.348;2022-10-16T06:53:38;16.90;99.90
16523;DHT22;19889;52.546;13.348;2022-10-16T06:56:09;16.90;99.90
16523;DHT22;19889;52.546;13.348;2022-10-16T06:58:36;16.90;99.90
16523;DHT22;19889;52.546;13.348;2022-10-16T07:01:04;16.90;99.90
16523;DHT22;19889;52.546;13.348;2022-10-16T07:03:31;16.90;99.90
16523;DHT22;19889;52.546;13.348;2022-10-16T07:06:03;16.90;99.90
16523;DHT22;19889;52.546;13.348;2022-10-16T07:08:31;17.00;99.90
16523;DHT22;19889;52.546;13.348;2022-10-16T07:10:59;17.00;99.90
16523;DHT22;19889;52.546;13.348;2022-10-16T07:13:27;17.00;99.90
16523;DHT22;19889;52.546;13.348;2022-10-16T07:15:54;17.00;99.90
16523;DHT22;19889;52.546;13.348;2022-10-16T07:18:20;17.00;99.90
16523;DHT22;19889;52.546;13.348;2022-10-16T07:20:51;17.00;99.90
16523;DHT22;19889;52.546;13.348;2022-10-16T07:23:19;17.00;99.90
16523;DHT22;19889;52.546;13.348;2022-10-16T07:25:53;17.00;99.90
16523;DHT22;19889;52.546;13.348;2022-10-16T07:28:21;17.10;99.90
16523;DHT22;19889;52.546;13.348;2022-10-16T07:30:48;17.10;99.90
16523;DHT22;19889;52.546;13.348;2022-10-16T07:33:15;17.10;99.90
16523;DHT22;19889;52.546;13.348;2022-10-16T07:35:48;17.10;99.90
16523;DHT22;19889;52.546;13.348;2022-10-16T07:38:15;17.20;99.90
16523;DHT22;19889;52.546;13.348;2022-10-16T07:40:43;17.20;99.90
16523;DHT22;19889;52.546;13.348;2022-10-16T07:43:10;17.20;99.90
16523;DHT22;19889;52.546;13.348;2022-10-16T07:45:37;17.20;99.90
16523;DHT22;19889;52.546;13.348;2022-10-16T07:48:04;17.20;99.90
16523;DHT22;19889;52.546;13.348;2022-10-16T07:50:30;17.30;99.90
16523;DHT22;19889;52.546;13.348;2022-10-16T07:52:57;17.30;99.90
16523;DHT22;19889;52.546;13.348;2022-10-16T07:55:24;17.30;99.90
16523;DHT22;19889;52.546;13.348;2022-10-16T07:57:52;17.30;99.90
16523;DHT22;19889;52.546;13.348;2022-10-16T08:00:19;17.30;99.90
16523;DHT22;19889;52.546;13.348;2022-10-16T08:02:45;17.30;99.90
16523;DHT22;19889;52.546;13.348;2022-10-16T08:05:12;17.30;99.90
16523;DHT22;19889;52.546;13.348;2022-10-16T08:07:39;17.30;99.90
16523;DHT22;19889;52.546;13.348;2022-10-16T08:10:19;17.30;99.90
16523;DHT22;19889;52.546;13.348;2022-10-16T08:12:46;17.30;99.90
16523;DHT22;19889;52.546;13.348;2022-10-16T08:15:14;17.40;99.90
16523;DHT22;19889;52.546;13.348;2022-10-16T08:17:41;17.40;99.90
16523;DHT22;19889;52.546;13.348;2022-10-16T08:20:09;17.40;99.90
16523;DHT22;19889;52.546;13.348;2022-10-16T08:22:36;17.40;99.90
16523;DHT22;19889;52.546;13.348;2022-10-16T08:25:03;17.40;99.90
16523;DHT22;19889;52.546;13.348;2022-10-16T08:27:31;17.50;99.90
16523;DHT22;19889;52.546;13.348;2022-10-16T08:29:58;17.50;99.90
16523;DHT22;19889;52.546;13.348;2022-10-16T08:32:26;17.40;99.90
16523;DHT22;19889;52.546;13.348;2022-10-16T08:34:52;17.50;99.90
16523;DHT22;19889;52.546;13.348;2022-10-16T08:37:19;17.50;99.90
16523;DHT22;19889;52.546;13.348;2022-10-16T08:39:47;17.50;99.90
16523;DHT22;19889;52.546;13.348;2022-10-16T08:42:28;17.50;99.90
16523;DHT22;19889;52.546;13.348;2022-10-16T08:45:34;17.60;99.90
16523;DHT22;19889;52.546;13.348;2022-10-16T08:48:18;15.30;99.90
16523;DHT22;19889;52.546;13.348;2022-10-16T08:50:47;17.50;99.90
16523;DHT22;19889;52.546;13.348;2022-10-16T08:53:17;17.60;99.90
16523;DHT22;19889;52.546;13.348;2022-10-16T08:55:48;17.60;99.90
16523;DHT22;19889;52.546;13.348;2022-10-16T08:58:18;17.60;99.90
16523;DHT22;19889;52.546;13.348;2022-10-16T09:00:47;17.60;99.90
16523;DHT22;19889;52.546;13.348;2022-10-16T09:06:17;17.60;99.90
16523;DHT22;19889;52.546;13.348;2022-10-16T09:08:58;17.70;99.90
16523;DHT22;19889;52.546;13.348;2022-10-16T09:11:37;17.70;99.90
16523;DHT22;19889;52.546;13.348;2022-10-16T09:14:18;17.70;99.90
16523;DHT22;19889;52.546;13.348;2022-10-16T09:16:55;17.80;99.90
16523;DHT22;19889;52.546;13.348;2022-10-16T09:19:27;17.80;99.90
16523;DHT22;19889;52.546;13.348;2022-10-16T09:21:56;17.80;99.90
16523;DHT22;19889;52.546;13.348;2022-10-16T09:24:25;17.80;99.90
16523;DHT22;19889;52.546;13.348;2022-10-16T09:26:52;17.90;99.90
16523;DHT22;19889;52.546;13.348;2022-10-16T09:29:21;17.90;99.90
16523;DHT22;19889;52.546;13.348;2022-10-16T09:31:50;17.90;99.90
16523;DHT22;19889;52.546;13.348;2022-10-16T09:34:24;17.90;99.90
16523;DHT22;19889;52.546;13.348;2022-10-16T09:36:54;17.90;99.90
16523;DHT22;19889;52.546;13.348;2022-10-16T09:39:22;17.90;99.90
16523;DHT22;19889;52.546;13.348;2022-10-16T09:41:49;17.90;99.90
16523;DHT22;19889;52.546;13.348;2022-10-16T09:44:21;17.90;99.90
16523;DHT22;19889;52.546;13.348;2022-10-16T09:46:49;17.90;99.90
16523;DHT22;19889;52.546;13.348;2022-10-16T09:49:21;18.00;99.90
16523;DHT22;19889;52.546;13.348;2022-10-16T09:51:49;18.00;99.90
16523;DHT22;19889;52.546;13.348;2022-10-16T09:54:19;18.00;99.90
16523;DHT22;19889;52.546;13.348;2022-10-16T09:56:46;18.00;99.90
16523;DHT22;19889;52.546;13.348;2022-10-16T09:59:18;18.00;99.90
16523;DHT22;19889;52.546;13.348;2022-10-16T10:01:47;18.00;99.90
16523;DHT22;19889;52.546;13.348;2022-10-16T10:04:14;18.00;99.90
16523;DHT22;19889;52.546;13.348;2022-10-16T10:06:44;18.10;99.90
16523;DHT22;19889;52.546;13.348;2022-10-16T10:09:19;18.00;99.90
16523;DHT22;19889;52.546;13.348;2022-10-16T10:11:49;18.10;99.90
16523;DHT22;19889;52.546;13.348;2022-10-16T10:14:22;18.10;99.90
16523;DHT22;19889;52.546;13.348;2022-10-16T10:16:50;18.10;99.90
16523;DHT22;19889;52.546;13.348;2022-10-16T10:19:20;18.10;99.90
16523;DHT22;19889;52.546;13.348;2022-10-16T10:21:48;18.20;99.90
16523;DHT22;19889;52.546;13.348;2022-10-16T10:24:17;18.20;99.90
16523;DHT22;19889;52.546;13.348;2022-10-16T10:26:51;18.20;99.90
16523;DHT22;19889;52.546;13.348;2022-10-16T10:29:35;18.20;99.90
16523;DHT22;19889;52.546;13.348;2022-10-16T10:32:14;18.20;99.90
16523;DHT22;19889;52.546;13.348;2022-10-16T10:34:53;18.20;99.90
16523;DHT22;19889;52.546;13.348;2022-10-16T10:37:39;18.30;99.90
16523;DHT22;19889;52.546;13.348;2022-10-16T10:40:15;18.30;99.90
16523;DHT22;19889;52.546;13.348;2022-10-16T10:42:48;18.30;99.90
16523;DHT22;19889;52.546;13.348;2022-10-16T10:45:25;18.30;99.90
16523;DHT22;19889;52.546;13.348;2022-10-16T10:48:17;18.30;99.90
16523;DHT22;19889;52.546;13.348;2022-10-16T10:50:50;18.30;99.90
16523;DHT22;19889;52.546;13.348;2022-10-16T10:53:28;18.30;99.90
16523;DHT22;19889;52.546;13.348;2022-10-16T10:56:06;18.40;99.90
16523;DHT22;19889;52.546;13.348;2022-10-16T10:59:00;18.40;99.90
16523;DHT22;19889;52.546;13.348;2022-10-16T11:01:35;18.50;99.90
16523;DHT22;19889;52.546;13.348;2022-10-16T11:04:23;18.50;99.90
16523;DHT22;19889;52.546;13.348;2022-10-16T11:06:57;18.50;99.90
16523;DHT22;19889;52.546;13.348;2022-10-16T11:09:28;18.60;99.90
16523;DHT22;19889;52.546;13.348;2022-10-16T11:12:01;18.60;99.90
16523;DHT22;19889;52.546;13.348;2022-10-16T11:14:36;18.60;99.90
16523;DHT22;19889;52.546;13.348;2022-10-16T11:17:10;18.60;99.90
16523;DHT22;19889;52.546;13.348;2022-10-16T11:19:42;18.60;99.90
16523;DHT22;19889;52.546;13.348;2022-10-16T11:22:15;18.50;99.90
16523;DHT22;19889;52.546;13.348;2022-10-16T11:24:45;18.60;99.90
16523;DHT22;19889;52.546;13.348;2022-10-16T11:27:19;18.60;99.90
16523;DHT22;19889;52.546;13.348;2022-10-16T11:29:51;18.60;99.90
16523;DHT22;19889;52.546;13.348;2022-10-16T11:32:23;18.60;99.90
16523;DHT22;19889;52.546;13.348;2022-10-16T11:34:55;18.60;99.90
16523;DHT22;19889;52.546;13.348;2022-10-16T11:37:26;18.50;99.90
16523;DHT22;19889;52.546;13.348;2022-10-16T11:40:00;18.60;99.90
16523;DHT22;19889;52.546;13.348;2022-10-16T11:42:36;18.60;99.90
16523;DHT22;19889;52.546;13.348;2022-10-16T11:45:15;18.60;99.90
16523;DHT22;19889;52.546;13.348;2022-10-16T11:47:45;18.60;99.90
16523;DHT22;19889;52.546;13.348;2022-10-16T11:50:20;18.60;99.90
16523;DHT22;19889;52.546;13.348;2022-10-16T11:52:52;18.60;99.90
16523;DHT22;19889;52.546;13.348;2022-10-16T11:55:22;18.70;99.90
16523;DHT22;19889;52.546;13.348;2022-10-16T11:57:53;18.60;99.90
16523;DHT22;19889;52.546;13.348;2022-10-16T12:00:23;18.60;99.90
16523;DHT22;19889;52.546;13.348;2022-10-16T12:02:58;18.60;99.90
16523;DHT22;19889;52.546;13.348;2022-10-16T12:05:39;18.60;99.90
16523;DHT22;19889;52.546;13.348;2022-10-16T12:08:14;18.60;99.90
16523;DHT22;19889;52.546;13.348;2022-10-16T12:10:43;18.60;99.90
16523;DHT22;19889;52.546;13.348;2022-10-16T12:13:31;18.60;99.90
16523;DHT22;19889;52.546;13.348;2022-10-16T12:16:21;18.70;99.90
16523;DHT22;19889;52.546;13.348;2022-10-16T12:18:48;18.70;99.90
16523;DHT22;19889;52.546;13.348;2022-10-16T12:21:17;18.70;99.90
16523;DHT22;19889;52.546;13.348;2022-10-16T12:23:49;18.70;99.90
16523;DHT22;19889;52.546;13.348;2022-10-16T12:26:24;18.70;99.90
16523;DHT22;19889;52.546;13.348;2022-10-16T12:28:52;18.70;99.90
16523;DHT22;19889;52.546;13.348;2022-10-16T12:31:20;18.70;99.90
16523;DHT22;19889;52.546;13.348;2022-10-16T12:33:57;18.70;99.90
16523;DHT22;19889;52.546;13.348;2022-10-16T12:36:30;18.60;99.90
16523;DHT22;19889;52.546;13.348;2022-10-16T12:38:58;18.70;99.90
16523;DHT22;19889;52.546;13.348;2022-10-16T12:41:28;18.70;99.90
16523;DHT22;19889;52.546;13.348;2022-10-16T12:43:57;18.70;99.90
16523;DHT22;19889;52.546;13.348;2022-10-16T12:46:36;18.60;99.90
16523;DHT22;19889;52.546;13.348;2022-10-16T12:49:23;18.60;99.90
16523;DHT22;19889;52.546;13.348;2022-10-16T12:51:55;18.60;99.90
16523;DHT22;19889;52.546;13.348;2022-10-16T12:54:27;18.60;99.90
16523;DHT22;19889;52.546;13.348;2022-10-16T12:59:52;18.60;99.90
16523;DHT22;19889;52.546;13.348;2022-10-16T13:02:46;18.60;99.90
16523;DHT22;19889;52.546;13.348;2022-10-16T13:05:27;18.60;99.90
16523;DHT22;19889;52.546;13.348;2022-10-16T13:08:06;18.60;99.90
16523;DHT22;19889;52.546;13.348;2022-10-16T13:10:41;18.60;99.90
16523;DHT22;19889;52.546;13.348;2022-10-16T13:13:23;18.60;99.90
16523;DHT22;19889;52.546;13.348;2022-10-16T13:16:04;18.60;99.90
16523;DHT22;19889;52.546;13.348;2022-10-16T13:18:42;18.60;99.90
16523;DHT22;19889;52.546;13.348;2022-10-16T13:21:20;19.00;99.90
16523;DHT22;19889;52.546;13.348;2022-10-16T13:23:53;18.70;99.90
16523;DHT22;19889;52.546;13.348;2022-10-16T13:26:29;18.70;99.90
16523;DHT22;19889;52.546;13.348;2022-10-16T13:28:59;18.70;99.90
16523;DHT22;19889;52.546;13.348;2022-10-16T13:31:28;18.70;99.90
16523;DHT22;19889;52.546;13.348;2022-10-16T13:33:57;18.70;99.90
16523;DHT22;19889;52.546;13.348;2022-10-16T13:36:27;18.70;99.90
16523;DHT22;19889;52.546;13.348;2022-10-16T13:39:15;18.70;99.90
16523;DHT22;19889;52.546;13.348;2022-10-16T13:41:43;18.70;99.90
16523;DHT22;19889;52.546;13.348;2022-10-16T13:44:15;18.70;99.90
16523;DHT22;19889;52.546;13.348;2022-10-16T13:46:44;18.70;99.90
16523;DHT22;19889;52.546;13.348;2022-10-16T13:49:13;18.70;99.90
16523;DHT22;19889;52.546;13.348;2022-10-16T13:51:40;18.70;99.90
16523;DHT22;19889;52.546;13.348;2022-10-16T13:54:09;18.70;99.90
16523;DHT22;19889;52.546;13.348;2022-10-16T13:56:36;18.70;99.90
16523;DHT22;19889;52.546;13.348;2022-10-16T13:59:06;18.70;99.90
16523;DHT22;19889;52.546;13.348;2022-10-16T14:01:34;18.70;99.90
16523;DHT22;19889;52.546;13.348;2022-10-16T14:04:09;18.70;99.90
16523;DHT22;19889;52.546;13.348;2022-10-16T14:06:41;18.70;99.90
16523;DHT22;19889;52.546;13.348;2022-10-16T14:09:13;18.60;99.90
16523;DHT22;19889;52.546;13.348;2022-10-16T14:11:46;18.70;99.90
16523;DHT22;19889;52.546;13.348;2022-10-16T14:14:14;18.70;99.90
16523;DHT22;19889;52.546;13.348;2022-10-16T14:16:43;18.80;99.90
16523;DHT22;19889;52.546;13.348;2022-10-16T14:19:19;18.80;99.90
16523;DHT22;19889;52.546;13.348;2022-10-16T14:21:47;18.80;99.90
16523;DHT22;19889;52.546;13.348;2022-10-16T14:24:25;18.90;99.90
16523;DHT22;19889;52.546;13.348;2022-10-16T14:26:52;18.80;99.90
16523;DHT22;19889;52.546;13.348;2022-10-16T14:29:20;18.80;99.90
16523;DHT22;19889;52.546;13.348;2022-10-16T14:31:54;18.80;99.90
16523;DHT22;19889;52.546;13.348;2022-10-16T14:34:28;18.80;99.90
16523;DHT22;19889;52.546;13.348;2022-10-16T14:36:56;18.80;99.90
16523;DHT22;19889;52.546;13.348;2022-10-16T14:39:26;18.80;99.90
16523;DHT22;19889;52.546;13.348;2022-10-16T14:41:56;18.80;99.90
16523;DHT22;19889;52.546;13.348;2022-10-16T14:44:28;18.80;99.90
16523;DHT22;19889;52.546;13.348;2022-10-16T14:46:55;18.80;99.90
16523;DHT22;19889;52.546;13.348;2022-10-16T14:49:22;18.90;99.90
16523;DHT22;19889;52.546;13.348;2022-10-16T14:51:51;18.80;99.90
16523;DHT22;19889;52.546;13.348;2022-10-16T14:54:18;18.00;99.90
16523;DHT22;19889;52.546;13.348;2022-10-16T14:56:48;16.50;99.90
16523;DHT22;19889;52.546;13.348;2022-10-16T14:59:19;18.90;99.90
16523;DHT22;19889;52.546;13.348;2022-10-16T15:01:46;18.90;99.90
16523;DHT22;19889;52.546;13.348;2022-10-16T15:04:13;18.90;99.90
16523;DHT22;19889;52.546;13.348;2022-10-16T15:06:41;18.80;99.90
16523;DHT22;19889;52.546;13.348;2022-10-16T15:09:09;18.80;99.90
16523;DHT22;19889;52.546;13.348;2022-10-16T15:11:36;18.80;99.90
16523;DHT22;19889;52.546;13.348;2022-10-16T15:14:03;18.80;99.90
16523;DHT22;19889;52.546;13.348;2022-10-16T15:16:31;18.80;99.90
16523;DHT22;19889;52.546;13.348;2022-10-16T15:18:58;18.80;99.90
16523;DHT22;19889;52.546;13.348;2022-10-16T15:21:27;18.80;99.90
16523;DHT22;19889;52.546;13.348;2022-10-16T15:23:54;18.80;99.90
16523;DHT22;19889;52.546;13.348;2022-10-16T15:26:23;18.80;99.90
16523;DHT22;19889;52.546;13.348;2022-10-16T15:28:50;18.80;99.90
16523;DHT22;19889;52.546;13.348;2022-10-16T15:31:17;18.80;99.90
16523;DHT22;19889;52.546;13.348;2022-10-16T15:33:44;18.80;99.90
16523;DHT22;19889;52.546;13.348;2022-10-16T15:36:24;18.80;99.90
16523;DHT22;19889;52.546;13.348;2022-10-16T15:38:51;18.70;99.90
16523;DHT22;19889;52.546;13.348;2022-10-16T15:41:19;18.70;99.90
16523;DHT22;19889;52.546;13.348;2022-10-16T15:43:48;18.70;99.90